ADDS METAR Data INFO
IDs: Format: Raw Decoded Include TAF

Data at: 0027 UTC 11 Dec 2017

KPQN 110015Z AUTO 29005KT 10SM SCT120 01/M02 A3003 RMK AO2
KPQN 102355Z AUTO 28005KT 10SM CLR 01/M03 A3003 RMK AO2
KPQN 102335Z AUTO 30006KT 10SM CLR 01/M03 A3003 RMK AO2
KPQN 102315Z AUTO 30006KT 10SM SCT110 02/M03 A3003 RMK AO2
KPQN 102255Z AUTO 30007KT 10SM SCT110 02/M03 A3003 RMK AO2
KPQN 102235Z AUTO 31006KT 10SM CLR 03/M02 A3003 RMK AO2
KPQN 102215Z AUTO 30008KT 10SM SCT090 03/M02 A3004 RMK AO2
KPQN 102155Z AUTO 31006KT 10SM SCT090 04/M02 A3003 RMK AO2
KPQN 102135Z AUTO 31007KT 10SM CLR 04/M02 A3003 RMK AO2
KPQN 102115Z AUTO 31009KT 10SM SCT100 04/M03 A3001 RMK AO2
KPQN 102055Z AUTO 31008KT 10SM SCT100 03/M03 A3000 RMK AO2
KPQN 102035Z AUTO 30007KT 10SM BKN100 03/M03 A3001 RMK AO2
KPQN 102015Z AUTO 31008KT 10SM BKN100 03/M03 A3001 RMK AO2
KPQN 101955Z AUTO 32007KT 10SM BKN110 03/M03 A3002 RMK AO2
KPQN 101935Z AUTO 32010KT 10SM SCT110 03/M03 A3002 RMK AO2
KPQN 101915Z AUTO 32010G17KT 10SM CLR 03/M03 A3003 RMK AO2
KPQN 101855Z AUTO 32009KT 10SM CLR 03/M03 A3003 RMK AO2
KPQN 101835Z AUTO 33013KT 10SM CLR 02/M03 A3003 RMK AO2
KPQN 101815Z AUTO 32008KT 10SM CLR 02/M03 A3002 RMK AO2
KPQN 101755Z AUTO 32008KT 10SM CLR 02/M03 A3002 RMK AO2
KPQN 101735Z AUTO 33010G16KT 10SM CLR 01/M04 A3002 RMK AO2
KPQN 101715Z AUTO 33011G16KT 10SM CLR 01/M03 A3003 RMK AO2
KPQN 101655Z AUTO 33011KT 10SM CLR 01/M03 A3003 RMK AO2
KPQN 101635Z AUTO 33010KT 10SM CLR 00/M03 A3002 RMK AO2
KPQN 101615Z AUTO 32008KT 10SM CLR M01/M04 A3001 RMK AO2
KPQN 101555Z AUTO 33008G15KT 10SM CLR M01/M04 A3001 RMK AO2
KPQN 101535Z AUTO 31008KT 10SM CLR M02/M04 A3001 RMK AO2
KPQN 101515Z AUTO 32006KT 10SM CLR M02/M04 A3000 RMK AO2
KPQN 101455Z AUTO 32007KT 10SM CLR M02/M04 A2999 RMK AO2
KPQN 101435Z AUTO 32009KT 10SM CLR M02/M04 A2999 RMK AO2
KPQN 101415Z AUTO 32010KT 10SM SCT110 M02/M05 A2999 RMK AO2
KPQN 101355Z AUTO 32010G15KT 10SM BKN110 M02/M04 A2999 RMK AO2
KPQN 101335Z AUTO 32009KT 10SM BKN110 M02/M04 A2998 RMK AO2
KPQN 101315Z AUTO 30008KT 10SM SCT110 M02/M04 A2998 RMK AO2
KPQN 101255Z AUTO 31008KT 10SM SCT100 M02/M05 A2997 RMK AO2
KPQN 101235Z AUTO 32009KT 10SM CLR M02/M04 A2996 RMK AO2
KPQN 101215Z AUTO 32007KT 10SM CLR M02/M04 A2996 RMK AO2
KPQN 101155Z AUTO 31008KT 10SM CLR M02/M04 A2996 RMK AO2
KPQN 101135Z AUTO 32007KT 10SM CLR M02/M05 A2995 RMK AO2
KPQN 101115Z AUTO 32008KT 10SM CLR M02/M04 A2994 RMK AO2
KPQN 101055Z AUTO 33009KT 10SM CLR M02/M04 A2993 RMK AO2
KPQN 101035Z AUTO 33010KT 10SM CLR M02/M04 A2993 RMK AO2
KPQN 101015Z AUTO 33010KT 10SM CLR M01/M04 A2992 RMK AO2
KPQN 100955Z AUTO 34011G18KT 10SM CLR M01/M04 A2992 RMK AO2
KPQN 100935Z AUTO 34012G16KT 10SM CLR M01/M04 A2991 RMK AO2
KPQN 100915Z AUTO 33013G19KT 10SM CLR M01/M04 A2989 RMK AO2
KPQN 100855Z AUTO 33011KT 10SM CLR M01/M04 A2989 RMK AO2
KPQN 100835Z AUTO 33012KT 10SM CLR M01/M05 A2989 RMK AO2
KPQN 100815Z AUTO 32012KT 10SM CLR M01/M05 A2989 RMK AO2
KPQN 100755Z AUTO 32015G18KT 10SM CLR M01/M05 A2988 RMK AO2
KPQN 100735Z AUTO 32012G17KT 10SM CLR M01/M05 A2987 RMK AO2
KPQN 100715Z AUTO 32013G16KT 10SM CLR M01/M05 A2987 RMK AO2
KPQN 100655Z AUTO 31011KT 10SM CLR M01/M06 A2986 RMK AO2
KPQN 100635Z AUTO 31012KT 10SM CLR M02/M06 A2986 RMK AO2
KPQN 100615Z AUTO 30010KT 10SM CLR M03/M06 A2986 RMK AO2
KPQN 100555Z AUTO 29010KT 10SM CLR M04/M07 A2987 RMK AO2
KPQN 100536Z AUTO 27012KT 10SM CLR M04/M07 A2986 RMK AO2
KPQN 100515Z AUTO 26010KT 10SM CLR M05/M07 A2987 RMK AO2
KPQN 100455Z AUTO 26007KT 10SM CLR M05/M07 A2988 RMK AO2
KPQN 100435Z AUTO 26007KT 10SM CLR M06/M07 A2988 RMK AO2
KPQN 100415Z AUTO 27011KT 10SM CLR M06/M07 A2990 RMK AO2
KPQN 100355Z AUTO 25006KT 10SM CLR M06/M07 A2989 RMK AO2
KPQN 100335Z AUTO 25005KT 10SM CLR M07/M08 A2990 RMK AO2
KPQN 100315Z AUTO 24006KT 10SM CLR M07/M08 A2992 RMK AO2
KPQN 100255Z AUTO 23008KT 10SM CLR M07/M08 A2993 RMK AO2
KPQN 100235Z AUTO 23009KT 10SM CLR M06/M08 A2993 RMK AO2
KPQN 100215Z AUTO 24011KT 10SM CLR M06/M07 A2993 RMK AO2
KPQN 100155Z AUTO 24012KT 10SM CLR M06/M08 A2995 RMK AO2
KPQN 100135Z AUTO 24010KT 10SM CLR M06/M08 A2996 RMK AO2
KPQN 100115Z AUTO 24011KT 10SM CLR M07/M08 A2997 RMK AO2
KPQN 100055Z AUTO 24008KT 10SM CLR M07/M08 A2998 RMK AO2
KPQN 100035Z AUTO 25010KT 10SM CLR M06/M08 A3000 RMK AO2
KPQN 100015Z AUTO 25008KT 10SM CLR M06/M08 A3001 RMK AO2
KPQN 092355Z AUTO 25010KT 10SM CLR M06/M08 A3001 RMK AO2
KPQN 092335Z AUTO 25008KT 10SM CLR M06/M08 A3003 RMK AO2
KPQN 092315Z AUTO 25007KT 10SM CLR M06/M09 A3004 RMK AO2
KPQN 092255Z AUTO 25006KT 10SM CLR M06/M09 A3004 RMK AO2
KPQN 092235Z AUTO 26007KT 10SM CLR M05/M08 A3005 RMK AO2
KPQN 092215Z AUTO 26007KT 10SM CLR M05/M08 A3006 RMK AO2
KPQN 092155Z AUTO 28007KT 10SM CLR M04/M08 A3007 RMK AO2
KPQN 092135Z AUTO 28006KT 10SM CLR M04/M09 A3007 RMK AO2
KPQN 092115Z AUTO 29008KT 10SM CLR M04/M09 A3008 RMK AO2
KPQN 092055Z AUTO 28008KT 10SM CLR M05/M09 A3007 RMK AO2
KPQN 092035Z AUTO 29006KT 10SM CLR M05/M09 A3009 RMK AO2
KPQN 092015Z AUTO 30007KT 10SM CLR M05/M09 A3008 RMK AO2
KPQN 091955Z AUTO 32008KT 10SM CLR M05/M10 A3009 RMK AO2
KPQN 091935Z AUTO 34008KT 10SM CLR M06/M11 A3009 RMK AO2
KPQN 091915Z AUTO 35008G15KT 10SM CLR M06/M11 A3010 RMK AO2
KPQN 091855Z AUTO 33011G15KT 10SM CLR M06/M11 A3011 RMK AO2
KPQN 091835Z AUTO 33010G14KT 10SM CLR M06/M11 A3011 RMK AO2
KPQN 091815Z AUTO 34012G18KT 10SM CLR M06/M12 A3011 RMK AO2
KPQN 091755Z AUTO 32009KT 10SM CLR M07/M11 A3011 RMK AO2
KPQN 091735Z AUTO 33011KT 10SM CLR M07/M12 A3012 RMK AO2
KPQN 091715Z AUTO 33010KT 10SM CLR M07/M12 A3012 RMK AO2
KPQN 091655Z AUTO 34012G16KT 10SM CLR M07/M12 A3013 RMK AO2
KPQN 091635Z AUTO 35010G15KT 10SM CLR M08/M12 A3013 RMK AO2
KPQN 091615Z AUTO 36011G18KT 10SM CLR M08/M12 A3013 RMK AO2
KPQN 091555Z AUTO 01010KT 10SM CLR M08/M12 A3012 RMK AO2
KPQN 091535Z AUTO 35013G21KT 10SM BKN013 M08/M11 A3012 RMK AO2
KPQN 091515Z AUTO 35011G24KT 10SM OVC013 M08/M10 A3012 RMK AO2
KPQN 091455Z AUTO 01008G16KT 10SM OVC013 M07/M09 A3011 RMK AO2
KPQN 091435Z AUTO 01010KT 10SM OVC015 M07/M09 A3010 RMK AO2
KPQN 091415Z AUTO 01008KT 10SM OVC015 M07/M09 A3008 RMK AO2
KPQN 091355Z AUTO 35007G16KT 10SM OVC015 M07/M09 A3008 RMK AO2
KPQN 091335Z AUTO 36011G18KT 10SM OVC015 M07/M09 A3008 RMK AO2
KPQN 091315Z AUTO 01007KT 10SM OVC013 M07/M09 A3007 RMK AO2
KPQN 091255Z AUTO 36008KT 10SM OVC013 M07/M09 A3006 RMK AO2
KPQN 091235Z AUTO 36009G15KT 10SM OVC013 M07/M09 A3005 RMK AO2